sensor_id;sensor_type;location;lat;lon;timestamp;pressure;altitude;pressure_sealevel;temperature;humidity
10115;BME280;5097;43.260;27.812;2023-02-18T00:00:26;100696.53;;;4.93;62.53
10115;BME280;5097;43.260;27.812;2023-02-18T00:03:10;100700.56;;;5.11;62.09
10115;BME280;5097;43.260;27.812;2023-02-18T00:05:55;100699.22;;;5.32;61.32
10115;BME280;5097;43.260;27.812;2023-02-18T00:08:41;100682.38;;;5.81;60.05
10115;BME280;5097;43.260;27.812;2023-02-18T00:11:25;100675.75;;;5.65;60.46
10115;BME280;5097;43.260;27.812;2023-02-18T00:14:12;100687.88;;;5.69;59.61
10115;BME280;5097;43.260;27.812;2023-02-18T00:16:56;100685.66;;;5.90;59.92
10115;BME280;5097;43.260;27.812;2023-02-18T00:19:40;100667.25;;;5.91;58.91
10115;BME280;5097;43.260;27.812;2023-02-18T00:22:24;100642.19;;;5.79;59.10
10115;BME280;5097;43.260;27.812;2023-02-18T00:25:09;100677.56;;;5.63;59.82
10115;BME280;5097;43.260;27.812;2023-02-18T00:27:53;100557.13;;;4.83;60.71
10115;BME280;5097;43.260;27.812;2023-02-18T00:30:39;100653.56;;;5.42;60.51
10115;BME280;5097;43.260;27.812;2023-02-18T00:33:23;100649.63;;;5.62;59.89
10115;BME280;5097;43.260;27.812;2023-02-18T00:36:09;100653.75;;;5.70;60.22
10115;BME280;5097;43.260;27.812;2023-02-18T00:38:55;100651.78;;;5.44;60.56
10115;BME280;5097;43.260;27.812;2023-02-18T00:41:41;100643.03;;;5.44;60.71
10115;BME280;5097;43.260;27.812;2023-02-18T00:44:25;100635.84;;;5.53;60.13
10115;BME280;5097;43.260;27.812;2023-02-18T00:47:11;100634.50;;;5.71;59.69
10115;BME280;5097;43.260;27.812;2023-02-18T00:49:55;100602.44;;;5.62;59.54
10115;BME280;5097;43.260;27.812;2023-02-18T00:52:39;100614.47;;;5.33;60.46
10115;BME280;5097;43.260;27.812;2023-02-18T00:55:23;100604.47;;;5.13;60.86
10115;BME280;5097;43.260;27.812;2023-02-18T00:58:08;100613.38;;;5.06;61.63
10115;BME280;5097;43.260;27.812;2023-02-18T01:00:53;100621.53;;;5.31;60.94
10115;BME280;5097;43.260;27.812;2023-02-18T01:03:39;100614.28;;;5.41;60.50
10115;BME280;5097;43.260;27.812;2023-02-18T01:06:23;100597.44;;;5.15;60.94
10115;BME280;5097;43.260;27.812;2023-02-18T01:09:06;100616.38;;;4.87;62.19
10115;BME280;5097;43.260;27.812;2023-02-18T01:11:50;100606.22;;;5.12;61.39
10115;BME280;5097;43.260;27.812;2023-02-18T01:14:35;100598.66;;;5.00;61.54
10115;BME280;5097;43.260;27.812;2023-02-18T01:17:19;100600.41;;;4.99;61.58
10115;BME280;5097;43.260;27.812;2023-02-18T01:20:04;100602.88;;;5.06;61.56
10115;BME280;5097;43.260;27.812;2023-02-18T01:22:49;100596.00;;;5.01;61.48
10115;BME280;5097;43.260;27.812;2023-02-18T01:25:33;100596.44;;;5.20;60.90
10115;BME280;5097;43.260;27.812;2023-02-18T01:28:17;100578.22;;;5.16;60.84
10115;BME280;5097;43.260;27.812;2023-02-18T01:31:06;100594.34;;;5.35;60.07
10115;BME280;5097;43.260;27.812;2023-02-18T01:33:50;100580.63;;;5.24;60.72
10115;BME280;5097;43.260;27.812;2023-02-18T01:36:34;100582.19;;;5.32;60.67
10115;BME280;5097;43.260;27.812;2023-02-18T01:39:18;100593.34;;;5.03;61.06
10115;BME280;5097;43.260;27.812;2023-02-18T01:42:03;100590.75;;;5.01;61.28
10115;BME280;5097;43.260;27.812;2023-02-18T01:44:49;100575.38;;;4.86;61.41
10115;BME280;5097;43.260;27.812;2023-02-18T01:47:34;100586.50;;;4.97;61.25
10115;BME280;5097;43.260;27.812;2023-02-18T01:50:18;100590.34;;;5.20;60.93
10115;BME280;5097;43.260;27.812;2023-02-18T01:53:03;100589.69;;;5.48;59.93
10115;BME280;5097;43.260;27.812;2023-02-18T01:55:47;100550.97;;;5.23;59.81
10115;BME280;5097;43.260;27.812;2023-02-18T01:58:32;100564.59;;;5.37;60.17
10115;BME280;5097;43.260;27.812;2023-02-18T02:01:16;100577.03;;;5.65;59.16
10115;BME280;5097;43.260;27.812;2023-02-18T02:04:01;100567.94;;;5.79;58.87
10115;BME280;5097;43.260;27.812;2023-02-18T02:06:45;100551.09;;;5.53;59.08
10115;BME280;5097;43.260;27.812;2023-02-18T02:09:30;100536.63;;;5.38;60.01
10115;BME280;5097;43.260;27.812;2023-02-18T02:12:35;100514.81;;;5.37;59.41
10115;BME280;5097;43.260;27.812;2023-02-18T02:15:29;100566.91;;;5.84;58.30
10115;BME280;5097;43.260;27.812;2023-02-18T02:18:31;100569.31;;;6.25;57.95
10115;BME280;5097;43.260;27.812;2023-02-18T02:22:01;100565.66;;;6.62;56.64
10115;BME280;5097;43.260;27.812;2023-02-18T02:28:23;100565.47;;;7.25;54.44
10115;BME280;5097;43.260;27.812;2023-02-18T02:31:34;100562.66;;;7.30;53.83
10115;BME280;5097;43.260;27.812;2023-02-18T02:34:48;100558.66;;;7.46;53.79
10115;BME280;5097;43.260;27.812;2023-02-18T02:37:39;100542.41;;;7.33;53.31
10115;BME280;5097;43.260;27.812;2023-02-18T02:40:30;100576.09;;;7.22;54.39
10115;BME280;5097;43.260;27.812;2023-02-18T02:43:21;100564.88;;;7.44;54.37
10115;BME280;5097;43.260;27.812;2023-02-18T02:46:17;100553.53;;;7.15;54.02
10115;BME280;5097;43.260;27.812;2023-02-18T02:49:08;100553.75;;;7.35;54.02
10115;BME280;5097;43.260;27.812;2023-02-18T02:52:00;100551.66;;;7.18;54.18
10115;BME280;5097;43.260;27.812;2023-02-18T02:54:46;100536.03;;;7.14;54.15
10115;BME280;5097;43.260;27.812;2023-02-18T02:57:47;100555.34;;;7.13;54.14
10115;BME280;5097;43.260;27.812;2023-02-18T03:00:55;100553.47;;;7.43;53.93
10115;BME280;5097;43.260;27.812;2023-02-18T03:04:09;100549.97;;;7.69;52.87
10115;BME280;5097;43.260;27.812;2023-02-18T03:07:13;100546.22;;;7.77;52.70
10115;BME280;5097;43.260;27.812;2023-02-18T03:10:15;100509.19;;;7.58;52.83
10115;BME280;5097;43.260;27.812;2023-02-18T03:13:06;100540.34;;;7.68;53.32
10115;BME280;5097;43.260;27.812;2023-02-18T03:15:56;100539.78;;;7.60;52.86
10115;BME280;5097;43.260;27.812;2023-02-18T03:18:45;100540.75;;;7.83;52.39
10115;BME280;5097;43.260;27.812;2023-02-18T03:21:34;100533.66;;;7.85;51.98
10115;BME280;5097;43.260;27.812;2023-02-18T03:24:23;100505.00;;;7.77;52.63
10115;BME280;5097;43.260;27.812;2023-02-18T03:27:13;100525.44;;;7.94;52.10
10115;BME280;5097;43.260;27.812;2023-02-18T03:30:02;100495.22;;;7.81;52.26
10115;BME280;5097;43.260;27.812;2023-02-18T03:32:48;100534.50;;;8.11;52.21
10115;BME280;5097;43.260;27.812;2023-02-18T03:35:36;100515.91;;;8.15;51.84
10115;BME280;5097;43.260;27.812;2023-02-18T03:38:23;100521.78;;;8.22;51.53
10115;BME280;5097;43.260;27.812;2023-02-18T03:41:12;100509.59;;;8.43;51.10
10115;BME280;5097;43.260;27.812;2023-02-18T03:43:59;100496.50;;;8.42;50.67
10115;BME280;5097;43.260;27.812;2023-02-18T03:46:44;100512.47;;;8.61;50.50
10115;BME280;5097;43.260;27.812;2023-02-18T03:49:28;100516.66;;;8.66;50.72
10115;BME280;5097;43.260;27.812;2023-02-18T03:52:13;100511.44;;;8.65;50.79
10115;BME280;5097;43.260;27.812;2023-02-18T03:54:57;100485.75;;;8.48;50.46
10115;BME280;5097;43.260;27.812;2023-02-18T03:57:42;100512.53;;;8.59;50.26
10115;BME280;5097;43.260;27.812;2023-02-18T04:00:26;100494.47;;;8.50;50.17
10115;BME280;5097;43.260;27.812;2023-02-18T04:03:10;100508.75;;;8.66;50.24
10115;BME280;5097;43.260;27.812;2023-02-18T04:05:54;100517.31;;;8.71;49.92
10115;BME280;5097;43.260;27.812;2023-02-18T04:08:38;100522.78;;;8.67;49.80
10115;BME280;5097;43.260;27.812;2023-02-18T04:11:21;100520.22;;;8.65;49.71
10115;BME280;5097;43.260;27.812;2023-02-18T04:14:07;100509.69;;;8.65;49.75
10115;BME280;5097;43.260;27.812;2023-02-18T04:16:51;100482.47;;;8.41;49.96
10115;BME280;5097;43.260;27.812;2023-02-18T04:19:35;100498.00;;;8.49;50.19
10115;BME280;5097;43.260;27.812;2023-02-18T04:22:19;100498.53;;;8.59;49.70
10115;BME280;5097;43.260;27.812;2023-02-18T04:25:03;100494.28;;;8.54;50.28
10115;BME280;5097;43.260;27.812;2023-02-18T04:27:47;100490.00;;;8.28;50.94
10115;BME280;5097;43.260;27.812;2023-02-18T04:30:32;100481.06;;;8.32;50.61
10115;BME280;5097;43.260;27.812;2023-02-18T04:33:16;100474.06;;;8.31;51.00
10115;BME280;5097;43.260;27.812;2023-02-18T04:36:00;100471.28;;;8.36;51.04
10115;BME280;5097;43.260;27.812;2023-02-18T04:38:45;100470.06;;;8.21;50.45
10115;BME280;5097;43.260;27.812;2023-02-18T04:41:28;100477.25;;;8.39;49.67
10115;BME280;5097;43.260;27.812;2023-02-18T04:44:12;100461.59;;;8.36;49.93
10115;BME280;5097;43.260;27.812;2023-02-18T04:46:58;100470.25;;;8.40;49.82
10115;BME280;5097;43.260;27.812;2023-02-18T04:49:41;100464.69;;;8.48;50.06
10115;BME280;5097;43.260;27.812;2023-02-18T04:52:26;100458.16;;;8.34;49.97
10115;BME280;5097;43.260;27.812;2023-02-18T04:55:10;100439.31;;;8.23;50.11
10115;BME280;5097;43.260;27.812;2023-02-18T04:57:53;100451.97;;;8.35;49.84
10115;BME280;5097;43.260;27.812;2023-02-18T05:00:37;100445.25;;;8.52;49.60
10115;BME280;5097;43.260;27.812;2023-02-18T05:03:23;100439.34;;;8.67;49.36
10115;BME280;5097;43.260;27.812;2023-02-18T05:06:06;100448.66;;;8.54;50.47
10115;BME280;5097;43.260;27.812;2023-02-18T05:08:51;100450.63;;;8.49;50.41
10115;BME280;5097;43.260;27.812;2023-02-18T05:11:35;100426.38;;;8.17;50.82
10115;BME280;5097;43.260;27.812;2023-02-18T05:14:18;100448.31;;;8.39;50.52
10115;BME280;5097;43.260;27.812;2023-02-18T05:17:02;100446.03;;;8.30;50.70
10115;BME280;5097;43.260;27.812;2023-02-18T05:19:47;100441.56;;;8.56;49.60
10115;BME280;5097;43.260;27.812;2023-02-18T05:22:31;100424.50;;;8.43;50.19
10115;BME280;5097;43.260;27.812;2023-02-18T05:25:15;100442.06;;;8.66;49.13
10115;BME280;5097;43.260;27.812;2023-02-18T05:27:59;100462.03;;;8.94;49.32
10115;BME280;5097;43.260;27.812;2023-02-18T05:30:43;100458.94;;;9.04;49.16
10115;BME280;5097;43.260;27.812;2023-02-18T05:33:27;100453.53;;;9.08;49.71
10115;BME280;5097;43.260;27.812;2023-02-18T05:36:12;100455.03;;;8.70;48.94
10115;BME280;5097;43.260;27.812;2023-02-18T05:38:56;100452.75;;;8.83;49.41
10115;BME280;5097;43.260;27.812;2023-02-18T05:41:40;100431.16;;;8.75;49.72
10115;BME280;5097;43.260;27.812;2023-02-18T05:44:24;100451.97;;;8.59;50.45
10115;BME280;5097;43.260;27.812;2023-02-18T05:47:13;100464.28;;;8.81;49.73
10115;BME280;5097;43.260;27.812;2023-02-18T05:49:58;100423.03;;;8.80;49.04
10115;BME280;5097;43.260;27.812;2023-02-18T05:52:43;100457.56;;;9.16;49.41
10115;BME280;5097;43.260;27.812;2023-02-18T05:55:27;100458.66;;;9.11;48.63
10115;BME280;5097;43.260;27.812;2023-02-18T05:58:10;100466.00;;;9.25;49.38
10115;BME280;5097;43.260;27.812;2023-02-18T06:00:55;100454.78;;;8.99;49.07
10115;BME280;5097;43.260;27.812;2023-02-18T06:03:38;100446.91;;;8.97;48.94
10115;BME280;5097;43.260;27.812;2023-02-18T06:06:22;100421.56;;;8.95;48.23
10115;BME280;5097;43.260;27.812;2023-02-18T06:09:08;100450.19;;;9.25;48.83
10115;BME280;5097;43.260;27.812;2023-02-18T06:11:52;100447.28;;;9.51;48.36
10115;BME280;5097;43.260;27.812;2023-02-18T06:14:36;100459.09;;;9.63;48.44
10115;BME280;5097;43.260;27.812;2023-02-18T06:17:22;100454.75;;;9.81;47.90
10115;BME280;5097;43.260;27.812;2023-02-18T06:20:07;100447.00;;;9.78;48.09
10115;BME280;5097;43.260;27.812;2023-02-18T06:22:51;100447.78;;;9.80;47.50
10115;BME280;5097;43.260;27.812;2023-02-18T06:25:36;100444.47;;;9.75;48.00
10115;BME280;5097;43.260;27.812;2023-02-18T06:28:19;100440.66;;;9.82;47.49
10115;BME280;5097;43.260;27.812;2023-02-18T06:31:03;100433.66;;;9.81;46.61
10115;BME280;5097;43.260;27.812;2023-02-18T06:33:48;100416.78;;;9.25;46.80
10115;BME280;5097;43.260;27.812;2023-02-18T06:36:31;100439.06;;;9.59;47.23
10115;BME280;5097;43.260;27.812;2023-02-18T06:39:15;100424.13;;;10.17;46.82
10115;BME280;5097;43.260;27.812;2023-02-18T06:42:01;100427.72;;;10.35;46.25
10115;BME280;5097;43.260;27.812;2023-02-18T06:44:44;100430.28;;;10.55;45.33
10115;BME280;5097;43.260;27.812;2023-02-18T06:47:28;100432.41;;;10.28;45.55
10115;BME280;5097;43.260;27.812;2023-02-18T06:50:12;100421.69;;;10.31;45.82
10115;BME280;5097;43.260;27.812;2023-02-18T06:52:56;100421.28;;;10.60;44.85
10115;BME280;5097;43.260;27.812;2023-02-18T06:55:40;100442.19;;;10.82;44.82
10115;BME280;5097;43.260;27.812;2023-02-18T06:58:26;100438.19;;;11.10;44.45
10115;BME280;5097;43.260;27.812;2023-02-18T07:01:09;100432.56;;;10.81;44.53
10115;BME280;5097;43.260;27.812;2023-02-18T07:03:53;100432.56;;;10.98;44.37
10115;BME280;5097;43.260;27.812;2023-02-18T07:06:37;100433.50;;;10.80;43.95
10115;BME280;5097;43.260;27.812;2023-02-18T07:09:21;100443.47;;;11.27;43.17
10115;BME280;5097;43.260;27.812;2023-02-18T07:12:05;100436.63;;;11.23;43.71
10115;BME280;5097;43.260;27.812;2023-02-18T07:14:51;100441.75;;;11.09;43.34
10115;BME280;5097;43.260;27.812;2023-02-18T07:17:34;100392.41;;;11.09;42.68
10115;BME280;5097;43.260;27.812;2023-02-18T07:20:19;100444.56;;;11.40;42.28
10115;BME280;5097;43.260;27.812;2023-02-18T07:23:03;100442.63;;;11.27;42.70
10115;BME280;5097;43.260;27.812;2023-02-18T07:25:47;100449.94;;;11.39;42.20
10115;BME280;5097;43.260;27.812;2023-02-18T07:28:31;100435.91;;;11.54;41.33
10115;BME280;5097;43.260;27.812;2023-02-18T07:31:16;100423.44;;;11.90;40.87
10115;BME280;5097;43.260;27.812;2023-02-18T07:34:00;100428.25;;;11.66;41.71
10115;BME280;5097;43.260;27.812;2023-02-18T07:36:44;100424.69;;;12.00;41.10
10115;BME280;5097;43.260;27.812;2023-02-18T07:39:28;100421.72;;;12.22;40.17
10115;BME280;5097;43.260;27.812;2023-02-18T07:42:12;100419.16;;;12.53;40.40
10115;BME280;5097;43.260;27.812;2023-02-18T07:44:56;100415.88;;;12.80;38.83
10115;BME280;5097;43.260;27.812;2023-02-18T07:47:41;100429.03;;;13.12;38.84
10115;BME280;5097;43.260;27.812;2023-02-18T07:50:26;100419.19;;;13.14;37.85
10115;BME280;5097;43.260;27.812;2023-02-18T07:53:12;100418.09;;;13.32;38.22
10115;BME280;5097;43.260;27.812;2023-02-18T07:55:57;100409.63;;;13.85;37.45
10115;BME280;5097;43.260;27.812;2023-02-18T07:58:41;100415.00;;;14.27;36.18
10115;BME280;5097;43.260;27.812;2023-02-18T08:01:25;100415.00;;;14.54;36.37
10115;BME280;5097;43.260;27.812;2023-02-18T08:04:11;100418.44;;;14.96;36.28
10115;BME280;5097;43.260;27.812;2023-02-18T08:06:55;100411.50;;;15.21;35.76
10115;BME280;5097;43.260;27.812;2023-02-18T08:09:39;100402.84;;;15.17;35.90
10115;BME280;5097;43.260;27.812;2023-02-18T08:12:22;100401.81;;;15.20;35.33
10115;BME280;5097;43.260;27.812;2023-02-18T08:15:07;100402.16;;;15.54;35.51
10115;BME280;5097;43.260;27.812;2023-02-18T08:17:51;100399.38;;;15.42;36.18
10115;BME280;5097;43.260;27.812;2023-02-18T08:20:37;100392.84;;;14.95;35.65
10115;BME280;5097;43.260;27.812;2023-02-18T08:23:21;100398.38;;;14.23;36.21
10115;BME280;5097;43.260;27.812;2023-02-18T08:26:07;100394.47;;;14.56;37.24
10115;BME280;5097;43.260;27.812;2023-02-18T08:28:56;100399.91;;;14.27;35.26
10115;BME280;5097;43.260;27.812;2023-02-18T08:31:40;100355.56;;;14.55;35.02
10115;BME280;5097;43.260;27.812;2023-02-18T08:34:26;100370.56;;;14.83;34.86
10115;BME280;5097;43.260;27.812;2023-02-18T08:37:12;100389.38;;;15.20;34.30
10115;BME280;5097;43.260;27.812;2023-02-18T08:39:56;100356.53;;;14.94;33.95
10115;BME280;5097;43.260;27.812;2023-02-18T08:42:40;100387.41;;;14.97;33.84
10115;BME280;5097;43.260;27.812;2023-02-18T08:45:24;100381.84;;;14.87;34.12
10115;BME280;5097;43.260;27.812;2023-02-18T08:48:09;100372.72;;;14.91;33.43
10115;BME280;5097;43.260;27.812;2023-02-18T08:51:13;100365.09;;;15.25;32.90
10115;BME280;5097;43.260;27.812;2023-02-18T08:53:58;100367.78;;;14.85;33.61
10115;BME280;5097;43.260;27.812;2023-02-18T08:56:42;100377.94;;;14.65;34.60
10115;BME280;5097;43.260;27.812;2023-02-18T08:59:26;100350.06;;;14.98;33.75
10115;BME280;5097;43.260;27.812;2023-02-18T09:02:12;100372.53;;;15.33;33.71
10115;BME280;5097;43.260;27.812;2023-02-18T09:04:56;100375.31;;;15.57;33.40
10115;BME280;5097;43.260;27.812;2023-02-18T09:07:40;100368.69;;;15.50;33.61
10115;BME280;5097;43.260;27.812;2023-02-18T09:10:25;100370.63;;;15.48;33.68
10115;BME280;5097;43.260;27.812;2023-02-18T09:13:09;100347.31;;;15.51;33.36
10115;BME280;5097;43.260;27.812;2023-02-18T09:15:57;100361.00;;;15.06;33.74
10115;BME280;5097;43.260;27.812;2023-02-18T09:18:41;100339.94;;;15.55;33.55
10115;BME280;5097;43.260;27.812;2023-02-18T09:21:26;100341.47;;;15.20;33.74
10115;BME280;5097;43.260;27.812;2023-02-18T09:24:10;100346.53;;;15.11;33.69
10115;BME280;5097;43.260;27.812;2023-02-18T09:26:55;100327.38;;;15.05;33.42
10115;BME280;5097;43.260;27.812;2023-02-18T09:29:40;100330.91;;;15.19;33.61
10115;BME280;5097;43.260;27.812;2023-02-18T09:32:24;100316.41;;;14.97;33.33
10115;BME280;5097;43.260;27.812;2023-02-18T09:35:16;100317.66;;;14.66;34.17
10115;BME280;5097;43.260;27.812;2023-02-18T09:38:00;100323.81;;;14.66;34.29
10115;BME280;5097;43.260;27.812;2023-02-18T09:40:47;100327.03;;;14.71;34.75
10115;BME280;5097;43.260;27.812;2023-02-18T09:43:38;100319.53;;;14.91;34.12
10115;BME280;5097;43.260;27.812;2023-02-18T09:46:27;100326.69;;;14.76;34.37
10115;BME280;5097;43.260;27.812;2023-02-18T09:49:15;100313.75;;;14.84;34.01
10115;BME280;5097;43.260;27.812;2023-02-18T09:52:03;100291.44;;;14.87;34.00
10115;BME280;5097;43.260;27.812;2023-02-18T09:54:50;100297.38;;;15.03;33.63
10115;BME280;5097;43.260;27.812;2023-02-18T09:57:40;100310.66;;;14.78;34.75
10115;BME280;5097;43.260;27.812;2023-02-18T10:00:30;100279.16;;;14.71;34.05
10115;BME280;5097;43.260;27.812;2023-02-18T10:03:17;100314.16;;;14.78;34.56
10115;BME280;5097;43.260;27.812;2023-02-18T10:06:04;100288.66;;;14.88;34.36
10115;BME280;5097;43.260;27.812;2023-02-18T10:08:51;100302.25;;;14.84;34.58
10115;BME280;5097;43.260;27.812;2023-02-18T10:11:39;100300.13;;;14.89;34.71
10115;BME280;5097;43.260;27.812;2023-02-18T10:14:24;100296.09;;;15.09;34.87
10115;BME280;5097;43.260;27.812;2023-02-18T10:17:13;100297.38;;;15.03;34.56
10115;BME280;5097;43.260;27.812;2023-02-18T10:20:00;100281.41;;;15.42;34.29
10115;BME280;5097;43.260;27.812;2023-02-18T10:22:50;100309.41;;;15.22;34.84
10115;BME280;5097;43.260;27.812;2023-02-18T10:25:40;100253.84;;;15.30;34.55
10115;BME280;5097;43.260;27.812;2023-02-18T10:28:26;100261.63;;;15.20;34.74
10115;BME280;5097;43.260;27.812;2023-02-18T10:31:14;100290.09;;;15.57;34.73
10115;BME280;5097;43.260;27.812;2023-02-18T10:34:10;100282.59;;;15.75;34.54
10115;BME280;5097;43.260;27.812;2023-02-18T10:37:01;100286.69;;;16.29;34.39
10115;BME280;5097;43.260;27.812;2023-02-18T10:39:59;100277.78;;;15.93;34.34
10115;BME280;5097;43.260;27.812;2023-02-18T10:42:54;100266.31;;;16.04;34.44
10115;BME280;5097;43.260;27.812;2023-02-18T10:45:45;100282.16;;;15.94;34.94
10115;BME280;5097;43.260;27.812;2023-02-18T10:48:42;100278.41;;;16.21;35.35
10115;BME280;5097;43.260;27.812;2023-02-18T10:51:32;100238.06;;;15.77;35.87
10115;BME280;5097;43.260;27.812;2023-02-18T10:54:22;100248.38;;;16.06;36.14
10115;BME280;5097;43.260;27.812;2023-02-18T10:57:14;100256.97;;;15.98;36.54
10115;BME280;5097;43.260;27.812;2023-02-18T11:00:02;100259.16;;;16.29;36.61
10115;BME280;5097;43.260;27.812;2023-02-18T11:03:11;100264.25;;;16.67;36.01
10115;BME280;5097;43.260;27.812;2023-02-18T11:05:58;100272.38;;;16.30;36.71
10115;BME280;5097;43.260;27.812;2023-02-18T11:08:44;100249.88;;;16.46;36.83
10115;BME280;5097;43.260;27.812;2023-02-18T11:11:31;100247.72;;;16.51;36.65
10115;BME280;5097;43.260;27.812;2023-02-18T11:14:36;100247.41;;;16.67;36.53
10115;BME280;5097;43.260;27.812;2023-02-18T11:17:25;100240.78;;;16.84;36.55
10115;BME280;5097;43.260;27.812;2023-02-18T11:20:24;100248.28;;;16.79;36.87
10115;BME280;5097;43.260;27.812;2023-02-18T11:23:18;100262.41;;;16.56;37.35
10115;BME280;5097;43.260;27.812;2023-02-18T11:26:06;100258.75;;;16.22;37.89
10115;BME280;5097;43.260;27.812;2023-02-18T11:28:58;100246.84;;;16.03;38.57
10115;BME280;5097;43.260;27.812;2023-02-18T11:31:46;100253.31;;;16.48;37.88
10115;BME280;5097;43.260;27.812;2023-02-18T11:34:31;100247.03;;;16.60;37.91
10115;BME280;5097;43.260;27.812;2023-02-18T11:37:18;100239.97;;;16.59;37.68
10115;BME280;5097;43.260;27.812;2023-02-18T11:40:03;100240.16;;;16.80;36.99
10115;BME280;5097;43.260;27.812;2023-02-18T11:42:49;100234.44;;;16.85;37.32
10115;BME280;5097;43.260;27.812;2023-02-18T11:45:34;100225.78;;;16.47;37.42
10115;BME280;5097;43.260;27.812;2023-02-18T11:48:22;100194.97;;;16.43;37.23
10115;BME280;5097;43.260;27.812;2023-02-18T11:51:15;100216.66;;;16.97;36.92
10115;BME280;5097;43.260;27.812;2023-02-18T11:54:00;100229.06;;;16.62;37.20
10115;BME280;5097;43.260;27.812;2023-02-18T11:56:54;100209.44;;;16.52;37.46
10115;BME280;5097;43.260;27.812;2023-02-18T11:59:41;100203.66;;;16.69;37.29
10115;BME280;5097;43.260;27.812;2023-02-18T12:02:30;100198.91;;;16.73;37.51
10115;BME280;5097;43.260;27.812;2023-02-18T12:05:20;100201.72;;;16.83;37.47
10115;BME280;5097;43.260;27.812;2023-02-18T12:08:06;100203.31;;;16.85;37.36
10115;BME280;5097;43.260;27.812;2023-02-18T12:10:58;100175.28;;;17.02;37.23
10115;BME280;5097;43.260;27.812;2023-02-18T12:13:49;100183.88;;;17.40;36.54
10115;BME280;5097;43.260;27.812;2023-02-18T12:16:44;100182.94;;;17.07;36.98
10115;BME280;5097;43.260;27.812;2023-02-18T12:23:02;100196.97;;;16.75;37.98
10115;BME280;5097;43.260;27.812;2023-02-18T12:25:54;100168.13;;;16.80;38.22
10115;BME280;5097;43.260;27.812;2023-02-18T12:28:57;100180.88;;;16.88;38.19
10115;BME280;5097;43.260;27.812;2023-02-18T12:31:53;100168.47;;;16.75;38.64
10115;BME280;5097;43.260;27.812;2023-02-18T12:34:48;100178.09;;;17.01;38.44
10115;BME280;5097;43.260;27.812;2023-02-18T12:37:55;100179.38;;;16.72;38.68
10115;BME280;5097;43.260;27.812;2023-02-18T12:40:56;100169.44;;;16.86;38.31
10115;BME280;5097;43.260;27.812;2023-02-18T12:43:53;100127.97;;;16.59;38.27
10115;BME280;5097;43.260;27.812;2023-02-18T12:46:51;100175.03;;;16.83;38.49
10115;BME280;5097;43.260;27.812;2023-02-18T12:53:29;100167.13;;;16.70;38.99
10115;BME280;5097;43.260;27.812;2023-02-18T12:56:34;100161.41;;;16.40;39.55
10115;BME280;5097;43.260;27.812;2023-02-18T12:59:43;100165.31;;;16.48;39.56
10115;BME280;5097;43.260;27.812;2023-02-18T13:02:50;100157.31;;;16.48;39.93
10115;BME280;5097;43.260;27.812;2023-02-18T13:05:44;100164.56;;;16.46;40.14
10115;BME280;5097;43.260;27.812;2023-02-18T13:08:36;100147.72;;;16.56;39.60
10115;BME280;5097;43.260;27.812;2023-02-18T13:11:30;100155.16;;;16.98;39.45
10115;BME280;5097;43.260;27.812;2023-02-18T13:14:20;100152.69;;;16.38;39.89
10115;BME280;5097;43.260;27.812;2023-02-18T13:17:07;100155.13;;;16.75;39.83
10115;BME280;5097;43.260;27.812;2023-02-18T13:19:58;100154.59;;;16.36;40.04
10115;BME280;5097;43.260;27.812;2023-02-18T13:22:46;100166.28;;;16.47;40.11
10115;BME280;5097;43.260;27.812;2023-02-18T13:25:34;100171.09;;;16.30;40.78
10115;BME280;5097;43.260;27.812;2023-02-18T13:28:24;100157.25;;;16.25;41.17
10115;BME280;5097;43.260;27.812;2023-02-18T13:31:22;100156.06;;;16.29;41.24
10115;BME280;5097;43.260;27.812;2023-02-18T13:34:15;100161.13;;;16.21;41.32
10115;BME280;5097;43.260;27.812;2023-02-18T13:37:07;100148.44;;;16.36;41.11
10115;BME280;5097;43.260;27.812;2023-02-18T13:39:56;100147.31;;;16.16;41.38
10115;BME280;5097;43.260;27.812;2023-02-18T13:42:41;100119.91;;;16.02;41.16
10115;BME280;5097;43.260;27.812;2023-02-18T13:45:28;100145.47;;;16.05;41.67
10115;BME280;5097;43.260;27.812;2023-02-18T13:48:21;100149.28;;;16.36;41.31
10115;BME280;5097;43.260;27.812;2023-02-18T13:51:08;100142.72;;;16.29;41.24
10115;BME280;5097;43.260;27.812;2023-02-18T13:54:03;100152.31;;;16.32;41.44
10115;BME280;5097;43.260;27.812;2023-02-18T13:56:51;100149.16;;;16.27;41.66
10115;BME280;5097;43.260;27.812;2023-02-18T13:59:40;100126.81;;;16.05;41.85
10115;BME280;5097;43.260;27.812;2023-02-18T14:02:31;100150.16;;;16.01;42.16
10115;BME280;5097;43.260;27.812;2023-02-18T14:05:20;100152.59;;;16.04;42.40
10115;BME280;5097;43.260;27.812;2023-02-18T14:08:11;100158.28;;;16.00;42.23
10115;BME280;5097;43.260;27.812;2023-02-18T14:17:38;100151.09;;;15.89;42.91
10115;BME280;5097;43.260;27.812;2023-02-18T14:20:45;100153.50;;;15.92;42.70
10115;BME280;5097;43.260;27.812;2023-02-18T14:23:48;100146.72;;;15.88;42.81
10115;BME280;5097;43.260;27.812;2023-02-18T14:26:43;100156.63;;;15.86;42.93
10115;BME280;5097;43.260;27.812;2023-02-18T14:29:29;100142.88;;;15.92;43.10
10115;BME280;5097;43.260;27.812;2023-02-18T14:32:17;100151.00;;;15.78;43.30
10115;BME280;5097;43.260;27.812;2023-02-18T14:35:19;100146.22;;;15.83;43.11
10115;BME280;5097;43.260;27.812;2023-02-18T14:38:16;100145.06;;;15.74;43.40
10115;BME280;5097;43.260;27.812;2023-02-18T14:41:27;100138.03;;;15.49;43.92
10115;BME280;5097;43.260;27.812;2023-02-18T14:47:30;100134.63;;;15.47;43.86
10115;BME280;5097;43.260;27.812;2023-02-18T14:50:19;100122.16;;;15.23;44.11
10115;BME280;5097;43.260;27.812;2023-02-18T14:53:06;100132.53;;;15.39;43.97
10115;BME280;5097;43.260;27.812;2023-02-18T14:55:54;100131.78;;;15.13;44.87
10115;BME280;5097;43.260;27.812;2023-02-18T14:58:43;100132.88;;;15.34;44.30
10115;BME280;5097;43.260;27.812;2023-02-18T15:01:30;100131.25;;;15.07;44.54
10115;BME280;5097;43.260;27.812;2023-02-18T15:04:15;100133.94;;;14.95;45.11